Time;durP1;ratioP1;P1;durP2;ratioP2;P2;SDS_P1;SDS_P2;PMS_P1;PMS_P2;Temp;Humidity;BMP_temperature;BMP_pressure;BME280_temperature;BME280_humidity;BME280_pressure;Samples;Min_cycle;Max_cycle;Signal;HPM_P1;HPM_P2
2024/04/20 00:00:28;;;;;;;5.05;1.23;;;7.50;99.90;;;;;;4459414;26;20339;-64
2024/04/20 00:02:29;;;;;;;3.03;1.02;;;7.50;99.90;;;;;;4463100;26;19999;-61
2024/04/20 00:04:29;;;;;;;2.92;1.38;;;7.50;99.90;;;;;;4423894;26;20048;-61
2024/04/20 00:06:30;;;;;;;5.53;1.33;;;7.50;99.90;;;;;;4441730;26;20016;-61
2024/04/20 00:08:33;;;;;;;3.78;1.08;;;7.40;99.90;;;;;;4456732;26;20371;-61
2024/04/20 00:10:34;;;;;;;2.90;1.30;;;7.40;99.90;;;;;;4458513;26;20008;-61
2024/04/20 00:12:35;;;;;;;3.25;1.10;;;7.40;99.90;;;;;;4450402;26;20437;-60
2024/04/20 00:14:36;;;;;;;7.38;1.17;;;7.40;99.90;;;;;;4455991;26;20015;-61
2024/04/20 00:16:36;;;;;;;2.80;1.02;;;7.40;99.90;;;;;;4451368;26;20014;-60
2024/04/20 00:18:38;;;;;;;3.80;1.17;;;7.40;99.90;;;;;;4454139;26;20019;-61
2024/04/20 00:20:39;;;;;;;3.92;1.38;;;7.40;99.90;;;;;;4457098;26;20001;-61
2024/04/20 00:22:39;;;;;;;3.50;1.65;;;7.40;99.90;;;;;;4457561;26;20045;-60
2024/04/20 00:24:40;;;;;;;2.00;1.17;;;7.40;99.90;;;;;;4457240;26;20460;-61
2024/04/20 00:26:41;;;;;;;1.48;0.88;;;7.30;99.90;;;;;;4459223;26;20008;-61
2024/04/20 00:28:41;;;;;;;3.88;1.38;;;7.40;99.90;;;;;;4451819;26;20008;-61
2024/04/20 00:30:42;;;;;;;3.40;1.00;;;7.40;99.90;;;;;;4449645;26;20344;-61
2024/04/20 00:32:44;;;;;;;1.48;1.02;;;7.30;99.90;;;;;;4458383;26;20012;-61
2024/04/20 00:34:45;;;;;;;3.05;1.15;;;7.30;99.90;;;;;;4455666;26;20012;-60
2024/04/20 00:36:46;;;;;;;2.72;1.15;;;7.30;99.90;;;;;;4448684;26;20090;-60
2024/04/20 00:38:47;;;;;;;3.25;1.05;;;7.30;99.90;;;;;;4457720;26;20090;-61
2024/04/20 00:40:54;;;;;;;7.07;1.23;;;7.30;99.90;;;;;;4465988;26;20343;-61
2024/04/20 00:42:55;;;;;;;2.97;1.00;;;7.30;99.90;;;;;;4426771;26;20517;-61
2024/04/20 00:44:55;;;;;;;7.38;1.70;;;7.30;99.90;;;;;;4454240;26;20023;-61
2024/04/20 00:47:01;;;;;;;6.88;1.63;;;7.30;99.90;;;;;;4456780;26;20031;-61
2024/04/20 00:49:02;;;;;;;2.97;1.05;;;7.30;99.90;;;;;;4426476;26;20416;-68
2024/04/20 00:51:03;;;;;;;4.35;1.23;;;7.20;99.90;;;;;;4454358;26;20031;-68
2024/04/20 00:53:04;;;;;;;6.07;1.50;;;7.20;99.90;;;;;;4449710;26;20012;-68
2024/04/20 00:55:05;;;;;;;2.88;1.20;;;7.30;99.90;;;;;;4456208;26;20024;-70
2024/04/20 00:57:07;;;;;;;3.33;1.23;;;7.20;99.90;;;;;;4441505;26;20154;-68
2024/04/20 00:59:09;;;;;;;2.97;0.80;;;7.20;99.90;;;;;;4449207;26;20003;-68
2024/04/20 01:01:09;;;;;;;6.88;1.20;;;7.20;99.90;;;;;;4449315;26;20021;-69
2024/04/20 01:03:10;;;;;;;5.25;0.88;;;7.20;99.90;;;;;;4465754;26;20459;-68
2024/04/20 01:05:10;;;;;;;3.65;1.23;;;7.20;99.90;;;;;;4448565;26;20023;-68
2024/04/20 01:07:12;;;;;;;5.40;1.50;;;7.30;99.90;;;;;;4452977;26;20027;-69
2024/04/20 01:09:13;;;;;;;5.60;1.42;;;7.30;99.90;;;;;;4454834;26;20341;-69
2024/04/20 01:11:15;;;;;;;3.28;1.25;;;7.30;99.90;;;;;;4462131;26;20085;-69
2024/04/20 01:13:23;;;;;;;;;;;7.30;99.90;;;;;;4461950;26;20039;-69
2024/04/20 01:15:23;;;;;;;3.03;1.08;;;7.30;99.90;;;;;;4444095;26;19959;-69
2024/04/20 01:17:24;;;;;;;4.00;1.35;;;7.20;99.90;;;;;;4459313;26;20363;-69
2024/04/20 01:19:25;;;;;;;4.47;1.23;;;7.20;99.90;;;;;;4460778;26;20008;-68
2024/04/20 01:21:26;;;;;;;4.38;1.20;;;7.30;99.90;;;;;;4457561;26;20022;-69
2024/04/20 01:23:26;;;;;;;2.28;0.82;;;7.30;99.90;;;;;;4448686;26;20031;-68
2024/04/20 01:25:28;;;;;;;2.97;1.27;;;7.30;99.90;;;;;;4470563;26;20340;-68
2024/04/20 01:27:29;;;;;;;3.30;1.35;;;7.30;99.90;;;;;;4426116;26;20571;-69
2024/04/20 01:29:29;;;;;;;7.10;1.52;;;7.20;99.90;;;;;;4464287;26;20062;-68
2024/04/20 01:31:30;;;;;;;2.30;0.90;;;7.20;99.90;;;;;;4449763;26;20015;-68
2024/04/20 01:33:30;;;;;;;4.45;1.10;;;7.30;99.90;;;;;;4426689;26;20012;-68
2024/04/20 01:35:31;;;;;;;2.47;0.80;;;7.20;99.90;;;;;;4464739;26;20004;-68
2024/04/20 01:37:32;;;;;;;3.03;1.30;;;7.20;99.90;;;;;;4422431;26;20037;-68
2024/04/20 01:39:32;;;;;;;5.82;1.40;;;7.20;99.90;;;;;;4469170;26;20003;-68
2024/04/20 01:41:33;;;;;;;2.33;1.10;;;7.10;99.90;;;;;;4441735;26;20012;-68
2024/04/20 01:43:33;;;;;;;4.75;1.55;;;7.20;99.90;;;;;;4469513;26;20019;-68
2024/04/20 01:45:34;;;;;;;3.80;1.27;;;7.10;99.90;;;;;;4455137;26;20478;-69
2024/04/20 01:47:35;;;;;;;3.72;1.40;;;7.10;99.90;;;;;;4450882;26;20004;-69
2024/04/20 01:49:35;;;;;;;2.20;1.10;;;7.20;99.90;;;;;;4463572;26;20530;-69
2024/04/20 01:51:36;;;;;;;2.53;1.23;;;7.20;99.90;;;;;;4443894;26;20012;-69
2024/04/20 01:53:36;;;;;;;4.95;1.60;;;7.20;99.90;;;;;;4448950;26;20433;-69
2024/04/20 01:55:37;;;;;;;3.63;1.20;;;7.20;99.90;;;;;;4455903;26;20014;-69
2024/04/20 01:57:37;;;;;;;4.13;1.30;;;7.20;99.90;;;;;;4454196;26;20500;-69
2024/04/20 01:59:39;;;;;;;6.28;1.48;;;7.20;99.90;;;;;;4457712;26;20008;-71
2024/04/20 02:01:43;;;;;;;5.47;1.42;;;7.20;99.90;;;;;;4453734;26;20018;-68
2024/04/20 02:03:44;;;;;;;4.13;1.02;;;7.20;99.90;;;;;;4439232;26;20077;-69
2024/04/20 02:05:45;;;;;;;3.97;1.08;;;7.20;99.90;;;;;;4446135;26;22581;-69
2024/04/20 02:07:45;;;;;;;6.28;1.30;;;7.20;99.90;;;;;;4444883;26;20531;-69
2024/04/20 02:09:46;;;;;;;3.75;1.08;;;7.20;99.90;;;;;;4458045;26;20034;-69
2024/04/20 02:11:47;;;;;;;11.63;1.65;;;7.20;99.90;;;;;;4448246;26;20456;-69
2024/04/20 02:13:47;;;;;;;3.42;1.17;;;7.30;99.90;;;;;;4412452;26;20369;-69
2024/04/20 02:15:48;;;;;;;3.38;1.10;;;7.30;99.90;;;;;;4459068;26;20036;-69
2024/04/20 02:17:49;;;;;;;4.53;1.45;;;7.30;99.90;;;;;;4453643;26;20475;-69
2024/04/20 02:19:49;;;;;;;2.47;1.00;;;7.30;99.90;;;;;;4442676;26;20079;-69
2024/04/20 02:21:50;;;;;;;5.30;1.15;;;7.30;99.90;;;;;;4451404;26;20364;-69
2024/04/20 02:23:50;;;;;;;4.45;1.40;;;7.30;99.90;;;;;;4459389;26;20004;-69
2024/04/20 02:25:51;;;;;;;3.42;1.23;;;7.40;99.90;;;;;;4426308;26;20090;-69
2024/04/20 02:27:54;;;;;;;4.45;1.50;;;7.40;99.90;;;;;;4426919;26;20500;-68
2024/04/20 02:29:55;;;;;;;1.48;1.00;;;7.40;99.90;;;;;;4458844;26;20359;-68
2024/04/20 02:31:56;;;;;;;3.03;1.10;;;7.40;99.90;;;;;;4448637;26;20020;-69
2024/04/20 02:33:58;;;;;;;3.53;1.55;;;7.40;99.90;;;;;;4453838;26;20004;-68
2024/04/20 02:35:58;;;;;;;2.88;1.27;;;7.40;99.90;;;;;;4462849;26;20003;-68
2024/04/20 02:37:59;;;;;;;2.60;1.20;;;7.40;99.90;;;;;;4448242;26;20078;-68
2024/04/20 02:40:01;;;;;;;1.25;0.73;;;7.40;99.90;;;;;;4466353;26;20003;-69
2024/04/20 02:42:02;;;;;;;4.65;1.15;;;7.40;99.90;;;;;;4461241;26;20012;-68
2024/04/20 02:44:03;;;;;;;1.98;0.90;;;7.40;99.90;;;;;;4455351;26;20015;-68
2024/04/20 02:46:04;;;;;;;3.97;1.23;;;7.50;99.90;;;;;;4453172;26;20011;-69
2024/04/20 02:48:05;;;;;;;3.35;1.02;;;7.40;99.90;;;;;;4428760;26;20011;-69
2024/04/20 02:50:06;;;;;;;4.82;1.42;;;7.50;99.90;;;;;;4470496;26;20012;-69
2024/04/20 02:52:06;;;;;;;4.03;1.40;;;7.50;99.90;;;;;;4422939;26;20369;-69
2024/04/20 02:54:07;;;;;;;3.67;1.10;;;7.50;99.90;;;;;;4463254;26;20007;-69
2024/04/20 02:56:07;;;;;;;1.70;0.98;;;7.50;99.90;;;;;;4449912;26;20027;-68
2024/04/20 02:58:09;;;;;;;1.95;0.95;;;7.50;99.90;;;;;;4453513;26;20004;-69
2024/04/20 03:00:10;;;;;;;4.20;1.38;;;7.50;99.90;;;;;;4449290;26;20077;-71
2024/04/20 03:02:10;;;;;;;3.85;1.33;;;7.50;99.90;;;;;;4455115;26;20364;-68
2024/04/20 03:04:11;;;;;;;2.20;0.90;;;7.50;99.90;;;;;;4449935;26;20012;-69
2024/04/20 03:06:11;;;;;;;1.00;0.70;;;7.50;99.90;;;;;;4456251;26;20008;-69
2024/04/20 03:08:12;;;;;;;1.85;1.08;;;7.50;99.90;;;;;;4447158;26;20007;-69
2024/04/20 03:10:13;;;;;;;3.35;1.00;;;7.60;99.90;;;;;;4463362;26;20494;-65
2024/04/20 03:12:15;;;;;;;1.00;0.63;;;7.50;99.90;;;;;;4462655;26;20007;-65
2024/04/20 03:14:16;;;;;;;2.00;1.00;;;7.40;99.90;;;;;;4463073;26;20016;-65
2024/04/20 03:16:19;;;;;;;4.25;0.93;;;7.40;99.90;;;;;;4454577;26;20038;-65
2024/04/20 03:18:20;;;;;;;1.67;0.88;;;7.40;99.90;;;;;;4419360;26;20031;-65
2024/04/20 03:20:20;;;;;;;1.75;0.70;;;7.40;99.90;;;;;;4463757;26;20028;-65
2024/04/20 03:22:21;;;;;;;0.70;0.60;;;7.40;99.90;;;;;;4456333;26;20028;-65
2024/04/20 03:24:22;;;;;;;2.28;0.70;;;7.40;99.90;;;;;;4452265;26;20008;-65
2024/04/20 03:26:22;;;;;;;3.05;0.60;;;7.40;99.90;;;;;;4441995;26;20375;-65
2024/04/20 03:28:23;;;;;;;1.58;0.95;;;7.50;99.90;;;;;;4464430;26;20047;-65
2024/04/20 03:30:23;;;;;;;3.33;1.27;;;7.50;99.90;;;;;;4461831;26;20097;-65
2024/04/20 03:32:24;;;;;;;2.33;1.10;;;7.50;99.90;;;;;;4456188;26;20009;-65
2024/04/20 03:34:25;;;;;;;1.92;0.98;;;7.50;99.90;;;;;;4442842;26;20036;-65
2024/04/20 03:36:25;;;;;;;1.23;0.82;;;7.50;99.90;;;;;;4457826;26;21372;-65
2024/04/20 03:38:26;;;;;;;2.20;1.00;;;7.50;99.90;;;;;;4429897;26;20005;-65
2024/04/20 03:40:28;;;;;;;3.92;1.30;;;7.50;99.90;;;;;;4455267;26;20004;-65
2024/04/20 03:42:29;;;;;;;2.20;1.00;;;7.60;99.90;;;;;;4465312;26;19999;-65
2024/04/20 03:44:29;;;;;;;5.03;1.00;;;7.60;99.90;;;;;;4442937;26;20079;-65
2024/04/20 03:46:31;;;;;;;3.33;1.08;;;7.50;99.90;;;;;;4450399;26;20007;-65
2024/04/20 03:48:32;;;;;;;1.25;0.77;;;7.60;99.90;;;;;;4407369;26;20454;-65
2024/04/20 03:50:33;;;;;;;1.60;0.90;;;7.60;99.90;;;;;;4454020;26;20004;-65
2024/04/20 03:52:34;;;;;;;4.55;1.33;;;7.60;99.90;;;;;;4450975;26;20154;-65
2024/04/20 03:54:34;;;;;;;2.53;1.00;;;7.60;99.90;;;;;;4460271;26;20003;-65
2024/04/20 03:56:35;;;;;;;3.60;1.20;;;7.60;99.90;;;;;;4455680;26;20081;-65
2024/04/20 03:58:35;;;;;;;2.13;0.80;;;7.60;99.90;;;;;;4449087;26;20449;-65
2024/04/20 04:00:36;;;;;;;4.72;1.00;;;7.60;99.90;;;;;;4432725;26;20005;-65
2024/04/20 04:02:37;;;;;;;2.10;0.80;;;7.60;99.90;;;;;;4459737;26;20008;-65
2024/04/20 04:04:37;;;;;;;5.07;1.20;;;7.60;99.90;;;;;;4446072;26;20000;-65
2024/04/20 04:06:38;;;;;;;2.85;0.90;;;7.60;99.90;;;;;;4450748;26;20369;-65
2024/04/20 04:08:39;;;;;;;2.83;1.10;;;7.60;99.90;;;;;;4456231;26;20431;-65
2024/04/20 04:10:39;;;;;;;3.47;1.05;;;7.60;99.90;;;;;;4452515;26;20015;-65
2024/04/20 04:12:40;;;;;;;2.83;0.90;;;7.60;99.90;;;;;;4455090;26;20019;-65
2024/04/20 04:14:41;;;;;;;8.73;1.48;;;7.60;99.90;;;;;;4463008;26;20008;-65
2024/04/20 04:16:41;;;;;;;3.08;1.08;;;7.60;99.90;;;;;;4455114;26;20036;-65
2024/04/20 04:18:42;;;;;;;1.98;0.75;;;7.50;99.90;;;;;;4444949;26;20027;-65
2024/04/20 04:20:43;;;;;;;2.67;1.10;;;7.50;99.90;;;;;;4462611;26;20051;-61
2024/04/20 04:22:43;;;;;;;5.10;1.35;;;7.50;99.90;;;;;;4434464;26;20019;-61
2024/04/20 04:24:44;;;;;;;1.70;0.80;;;7.50;99.90;;;;;;4429235;26;20023;-61
2024/04/20 04:26:44;;;;;;;4.32;1.15;;;7.50;99.90;;;;;;4465878;26;20036;-61
2024/04/20 04:28:45;;;;;;;4.15;1.00;;;7.50;99.90;;;;;;4459112;26;20008;-61
2024/04/20 04:30:46;;;;;;;4.45;1.25;;;7.50;99.90;;;;;;4446932;26;20005;-61
2024/04/20 04:32:46;;;;;;;2.95;1.10;;;7.50;99.90;;;;;;4458172;26;20603;-61
2024/04/20 04:34:49;;;;;;;3.35;1.05;;;7.50;99.90;;;;;;4456735;26;20011;-61
2024/04/20 04:36:50;;;;;;;3.20;0.95;;;7.50;99.90;;;;;;4460263;26;20019;-61
2024/04/20 04:38:50;;;;;;;4.07;1.10;;;7.50;99.90;;;;;;4420223;26;20012;-61
2024/04/20 04:40:53;;;;;;;2.47;0.60;;;7.50;99.90;;;;;;4473210;26;22478;-61
2024/04/20 04:42:54;;;;;;;4.13;1.17;;;7.50;99.90;;;;;;4426323;26;20008;-61
2024/04/20 04:44:55;;;;;;;3.83;1.20;;;7.50;99.90;;;;;;4445820;26;20356;-61
2024/04/20 04:46:56;;;;;;;6.07;1.25;;;7.50;99.90;;;;;;4413428;26;20461;-61
2024/04/20 04:48:56;;;;;;;4.88;1.20;;;7.50;99.90;;;;;;4458614;26;20040;-61
2024/04/20 04:50:57;;;;;;;3.17;1.20;;;7.50;99.90;;;;;;4474072;26;20344;-61
2024/04/20 04:52:59;;;;;;;3.72;0.90;;;7.50;99.90;;;;;;4457073;26;20023;-65
2024/04/20 04:54:59;;;;;;;4.03;1.38;;;7.50;99.90;;;;;;4441093;26;20467;-61
2024/04/20 04:57:00;;;;;;;2.45;0.90;;;7.40;99.90;;;;;;4461606;26;20005;-61
2024/04/20 04:59:03;;;;;;;1.88;0.63;;;7.50;99.90;;;;;;4461956;26;20039;-61
2024/04/20 05:01:04;;;;;;;4.07;1.20;;;7.50;99.90;;;;;;4452518;26;20028;-61
2024/04/20 05:03:05;;;;;;;4.97;1.10;;;7.50;99.90;;;;;;4452246;26;20037;-61
2024/04/20 05:05:05;;;;;;;3.53;0.90;;;7.50;99.90;;;;;;4464901;26;20012;-62
2024/04/20 05:07:06;;;;;;;4.47;1.10;;;7.50;99.90;;;;;;4452097;26;20043;-62
2024/04/20 05:09:07;;;;;;;2.50;0.73;;;7.50;99.90;;;;;;4453976;26;20000;-62
2024/04/20 05:11:09;;;;;;;5.20;0.90;;;7.50;99.90;;;;;;4455485;26;20022;-61
2024/04/20 05:13:10;;;;;;;4.35;1.20;;;7.50;99.90;;;;;;4440251;26;20000;-61
2024/04/20 05:15:11;;;;;;;4.68;1.00;;;7.50;99.90;;;;;;4454804;26;20041;-62
2024/04/20 05:17:11;;;;;;;2.75;0.95;;;7.50;99.90;;;;;;4448503;26;20015;-61
2024/04/20 05:19:12;;;;;;;3.95;1.23;;;7.50;99.90;;;;;;4459622;26;20011;-61
2024/04/20 05:21:13;;;;;;;3.28;0.95;;;7.60;99.90;;;;;;4455961;26;20004;-61
2024/04/20 05:23:13;;;;;;;2.20;0.80;;;7.60;99.90;;;;;;4421205;26;20045;-61
2024/04/20 05:25:14;;;;;;;3.42;1.13;;;7.60;99.90;;;;;;4464289;26;20015;-61
2024/04/20 05:27:15;;;;;;;2.67;0.80;;;7.60;99.90;;;;;;4460999;26;20376;-61
2024/04/20 05:29:16;;;;;;;5.75;1.17;;;7.60;99.90;;;;;;4461090;26;20004;-72
2024/04/20 05:31:17;;;;;;;4.57;1.30;;;7.60;99.90;;;;;;4455495;26;20032;-67
2024/04/20 05:33:17;;;;;;;7.78;1.48;;;7.60;99.90;;;;;;4458783;26;20392;-67
2024/04/20 05:35:18;;;;;;;5.00;0.98;;;7.70;99.90;;;;;;4464007;26;20000;-67
2024/04/20 05:37:18;;;;;;;3.20;0.85;;;7.70;99.90;;;;;;4418942;26;20608;-67
2024/04/20 05:39:19;;;;;;;3.22;1.27;;;7.60;99.90;;;;;;4450571;26;20018;-67
2024/04/20 05:41:20;;;;;;;8.00;1.52;;;7.60;99.90;;;;;;4463325;26;20047;-67
2024/04/20 05:43:20;;;;;;;6.18;1.27;;;7.60;99.90;;;;;;4464742;26;20466;-67
2024/04/20 05:45:25;;;;;;;2.30;0.77;;;7.70;99.90;;;;;;4426160;26;20081;-67
2024/04/20 05:47:25;;;;;;;5.80;0.85;;;7.70;99.90;;;;;;4448180;26;20012;-67
2024/04/20 05:49:26;;;;;;;4.60;1.00;;;7.70;99.90;;;;;;4447166;26;20087;-67
2024/04/20 05:51:26;;;;;;;4.35;0.93;;;7.70;99.90;;;;;;4441134;26;20052;-67
2024/04/20 05:53:27;;;;;;;3.40;0.85;;;7.70;99.90;;;;;;4446764;26;20449;-67
2024/04/20 05:55:28;;;;;;;7.88;1.98;;;7.70;99.90;;;;;;4412874;26;20000;-67
2024/04/20 05:57:28;;;;;;;7.18;1.35;;;7.70;99.90;;;;;;4460748;26;20356;-67
2024/04/20 05:59:29;;;;;;;3.58;0.98;;;7.70;99.90;;;;;;4461430;26;20077;-67
2024/04/20 06:01:29;;;;;;;4.38;1.20;;;7.70;99.90;;;;;;4449178;26;20412;-67
2024/04/20 06:03:30;;;;;;;3.97;1.30;;;7.70;99.90;;;;;;4451052;26;20008;-67
2024/04/20 06:05:31;;;;;;;5.00;1.33;;;7.70;99.90;;;;;;4459016;26;20359;-67
2024/04/20 06:07:32;;;;;;;6.43;1.25;;;7.70;99.90;;;;;;4454291;26;20004;-67
2024/04/20 06:09:32;;;;;;;4.97;1.30;;;7.70;99.90;;;;;;4453213;26;20441;-67
2024/04/20 06:11:33;;;;;;;9.68;1.80;;;7.70;99.90;;;;;;4458132;26;20011;-67
2024/04/20 06:13:34;;;;;;;3.25;1.00;;;7.70;99.90;;;;;;4459459;26;20026;-67
2024/04/20 06:15:34;;;;;;;4.97;0.98;;;7.80;99.90;;;;;;4466795;26;20040;-67
2024/04/20 06:17:35;;;;;;;7.85;1.40;;;7.80;99.90;;;;;;4387067;26;20502;-67
2024/04/20 06:19:35;;;;;;;4.30;1.35;;;7.80;99.90;;;;;;4452836;26;20016;-67
2024/04/20 06:21:36;;;;;;;5.38;1.27;;;7.80;99.90;;;;;;4448478;26;20011;-68
2024/04/20 06:23:37;;;;;;;8.25;1.33;;;7.80;99.90;;;;;;4418461;26;20093;-67
2024/04/20 06:25:38;;;;;;;5.97;1.15;;;7.80;99.90;;;;;;4465322;26;20012;-67
2024/04/20 06:27:39;;;;;;;4.93;1.30;;;7.80;99.90;;;;;;4426471;26;20075;-67
2024/04/20 06:29:40;;;;;;;4.93;1.40;;;7.80;99.90;;;;;;4417220;26;20020;-67
2024/04/20 06:31:40;;;;;;;4.50;1.00;;;7.80;99.90;;;;;;4431195;26;20460;-67
2024/04/20 06:33:41;;;;;;;6.45;1.42;;;7.80;99.90;;;;;;4434220;26;20019;-67
2024/04/20 06:35:42;;;;;;;6.18;1.10;;;7.80;99.90;;;;;;4463728;26;20444;-67
2024/04/20 06:37:42;;;;;;;9.77;1.55;;;7.80;99.90;;;;;;4419334;26;20027;-67
2024/04/20 06:39:46;;;;;;;3.15;0.98;;;7.90;99.90;;;;;;4451388;26;21286;-70
2024/04/20 06:41:47;;;;;;;6.43;1.50;;;7.90;99.90;;;;;;4454688;26;20450;-72
2024/04/20 06:43:50;;;;;;;6.10;1.20;;;7.90;99.90;;;;;;4465519;26;20034;-71
2024/04/20 06:45:50;;;;;;;2.95;0.90;;;7.90;99.90;;;;;;4417979;26;20426;-71
2024/04/20 06:47:51;;;;;;;6.88;2.00;;;7.90;99.90;;;;;;4451826;26;20012;-71
2024/04/20 06:49:56;;;;;;;10.70;1.75;;;8.00;99.90;;;;;;4424650;26;20023;-71
2024/04/20 06:51:56;;;;;;;8.77;1.77;;;7.90;99.90;;;;;;4418359;26;20027;-72
2024/04/20 06:53:57;;;;;;;4.53;1.27;;;7.90;99.90;;;;;;4450209;26;20004;-71
2024/04/20 06:56:01;;;;;;;5.75;1.52;;;8.00;99.90;;;;;;4448640;26;20414;-72
2024/04/20 06:58:02;;;;;;;7.07;1.77;;;8.00;99.90;;;;;;4452895;26;20521;-72
2024/04/20 07:00:04;;;;;;;7.47;1.70;;;7.90;99.90;;;;;;4447145;26;20020;-73
2024/04/20 07:02:05;;;;;;;6.63;1.43;;;8.00;99.90;;;;;;4460274;26;20016;-71
2024/04/20 07:04:05;;;;;;;5.80;1.48;;;8.00;99.90;;;;;;4455921;26;20712;-71
2024/04/20 07:06:06;;;;;;;10.55;2.10;;;8.00;99.90;;;;;;4452649;26;20051;-69
2024/04/20 07:08:07;;;;;;;4.95;1.42;;;8.00;99.90;;;;;;4448671;26;20004;-70
2024/04/20 07:10:07;;;;;;;6.30;1.42;;;8.00;99.90;;;;;;4453925;26;20048;-72
2024/04/20 07:12:08;;;;;;;8.13;1.55;;;8.00;99.90;;;;;;4456061;26;20004;-71
2024/04/20 07:14:09;;;;;;;6.45;1.55;;;8.00;99.90;;;;;;4452610;26;20058;-71
2024/04/20 07:16:10;;;;;;;4.20;1.10;;;8.00;99.90;;;;;;4452713;26;20102;-71
2024/04/20 07:18:11;;;;;;;3.35;0.98;;;8.00;99.90;;;;;;4426527;26;20384;-71
2024/04/20 07:20:11;;;;;;;5.35;1.27;;;8.10;99.90;;;;;;4447458;26;20008;-71
2024/04/20 07:22:12;;;;;;;9.27;1.65;;;8.00;99.90;;;;;;4453622;26;20011;-71
2024/04/20 07:24:12;;;;;;;7.38;2.08;;;8.00;99.90;;;;;;4452741;26;20001;-71
2024/04/20 07:26:13;;;;;;;9.70;1.60;;;8.00;99.90;;;;;;4424965;26;20005;-71
2024/04/20 07:28:13;;;;;;;8.60;1.77;;;8.00;99.90;;;;;;4431434;26;20464;-72
2024/04/20 07:30:14;;;;;;;6.90;1.40;;;8.10;99.90;;;;;;4454545;26;20022;-71
2024/04/20 07:32:15;;;;;;;3.90;0.93;;;8.10;99.90;;;;;;4444997;26;20004;-71
2024/04/20 07:34:16;;;;;;;7.70;1.10;;;8.10;99.90;;;;;;4454095;26;20018;-71
2024/04/20 07:36:16;;;;;;;6.28;1.48;;;8.20;99.90;;;;;;4424287;26;20001;-71
2024/04/20 07:38:17;;;;;;;6.53;1.40;;;8.30;99.90;;;;;;4451851;26;20066;-71
2024/04/20 07:40:17;;;;;;;4.75;1.23;;;8.30;99.90;;;;;;4431195;26;20038;-71
2024/04/20 07:42:18;;;;;;;7.32;1.20;;;8.20;99.90;;;;;;4452454;26;20004;-71
2024/04/20 07:44:20;;;;;;;4.53;1.15;;;8.30;99.90;;;;;;4458466;26;20020;-71
2024/04/20 07:46:20;;;;;;;5.55;1.27;;;8.30;99.90;;;;;;4463372;26;20351;-71
2024/04/20 07:48:21;;;;;;;3.03;0.82;;;8.30;99.90;;;;;;4460727;26;20018;-71
2024/04/20 07:50:22;;;;;;;3.45;0.98;;;8.40;99.90;;;;;;4455862;26;20085;-61
2024/04/20 07:52:22;;;;;;;6.35;0.88;;;8.40;99.90;;;;;;4466340;26;20099;-61
2024/04/20 07:54:23;;;;;;;7.75;1.38;;;8.40;99.90;;;;;;4430939;26;20791;-61
2024/04/20 07:56:24;;;;;;;8.13;1.35;;;8.50;99.90;;;;;;4448905;26;20003;-61
2024/04/20 07:58:24;;;;;;;5.40;1.48;;;8.50;99.90;;;;;;4462381;26;20032;-61
2024/04/20 08:00:26;;;;;;;4.45;0.90;;;8.50;99.90;;;;;;4450490;26;20333;-61
2024/04/20 08:02:26;;;;;;;7.15;1.38;;;8.50;99.90;;;;;;4466463;26;20048;-60
2024/04/20 08:04:27;;;;;;;6.30;1.25;;;8.60;99.90;;;;;;4454802;26;20020;-61
2024/04/20 08:06:28;;;;;;;8.93;1.25;;;8.60;99.90;;;;;;4451207;26;20015;-61
2024/04/20 08:08:30;;;;;;;4.90;1.40;;;8.60;99.90;;;;;;4459062;26;20019;-61
2024/04/20 08:10:31;;;;;;;7.95;1.42;;;8.60;99.90;;;;;;4429385;26;20008;-61
2024/04/20 08:12:31;;;;;;;5.70;1.60;;;8.60;99.90;;;;;;4475027;26;20444;-60
2024/04/20 08:14:32;;;;;;;5.88;1.00;;;8.60;99.90;;;;;;4455533;26;20039;-60
2024/04/20 08:16:32;;;;;;;2.78;0.90;;;8.70;99.90;;;;;;4448997;26;20026;-61
2024/04/20 08:18:33;;;;;;;9.15;1.50;;;8.70;99.90;;;;;;4453620;26;20008;-60
2024/04/20 08:20:34;;;;;;;6.75;1.70;;;8.70;99.90;;;;;;4450154;26;20011;-60
2024/04/20 08:22:34;;;;;;;13.00;1.45;;;8.80;99.90;;;;;;4468331;26;20496;-61
2024/04/20 08:24:35;;;;;;;3.22;1.23;;;8.70;99.90;;;;;;4423535;26;20048;-63
2024/04/20 08:26:35;;;;;;;5.50;1.30;;;8.70;99.90;;;;;;4412238;26;20465;-61
2024/04/20 08:28:36;;;;;;;4.63;1.17;;;8.70;99.90;;;;;;4454779;26;20014;-61
2024/04/20 08:30:37;;;;;;;8.18;1.20;;;8.80;99.90;;;;;;4458480;26;20472;-61
2024/04/20 08:32:37;;;;;;;8.38;1.38;;;8.80;99.90;;;;;;4456576;26;20385;-63
2024/04/20 08:34:38;;;;;;;4.75;1.08;;;8.80;99.90;;;;;;4425759;26;20400;-61
2024/04/20 08:36:39;;;;;;;4.18;1.17;;;8.90;99.90;;;;;;4463151;26;20012;-60
2024/04/20 08:38:39;;;;;;;11.85;1.60;;;8.90;99.90;;;;;;4461903;26;20012;-60
2024/04/20 08:40:41;;;;;;;7.00;1.25;;;8.90;99.90;;;;;;4451032;26;20558;-60
2024/04/20 08:42:43;;;;;;;8.13;1.55;;;9.00;99.90;;;;;;4465950;26;20456;-60
2024/04/20 08:44:48;;;;;;;5.22;1.38;;;9.00;99.90;;;;;;4427972;26;20023;-60
2024/04/20 08:46:51;;;;;;;6.05;1.27;;;9.00;99.90;;;;;;4450300;26;20100;-61
2024/04/20 08:48:57;;;;;;;5.43;1.20;;;9.10;99.90;;;;;;4389155;26;20005;-60
2024/04/20 08:51:01;;;;;;;9.38;1.85;;;9.10;99.90;;;;;;4422956;26;20020;-60
2024/04/20 08:53:04;;;;;;;6.03;1.15;;;9.20;99.90;;;;;;4468970;26;20004;-61
2024/04/20 08:55:05;;;;;;;;;;;9.20;99.90;;;;;;4451105;26;20031;-61
2024/04/20 08:57:08;;;;;;;4.20;1.20;;;9.30;99.90;;;;;;4423432;26;19925;-61
2024/04/20 08:59:08;;;;;;;;;;;9.30;99.90;;;;;;4464484;26;20452;-61
2024/04/20 09:01:12;;;;;;;5.28;1.38;;;9.30;99.90;;;;;;4452089;26;20312;-61
2024/04/20 09:03:13;;;;;;;8.63;1.27;;;9.40;99.90;;;;;;4458040;26;20012;-60
2024/04/20 09:05:16;;;;;;;7.68;1.73;;;9.40;99.90;;;;;;4450179;26;20009;-60
2024/04/20 09:07:17;;;;;;;5.15;1.20;;;9.50;99.90;;;;;;4423266;26;20886;-60
2024/04/20 09:09:19;;;;;;;8.75;1.50;;;9.60;99.90;;;;;;4452691;26;20008;-60
2024/04/20 09:11:20;;;;;;;8.48;1.48;;;9.60;99.90;;;;;;4451450;26;20077;-60
2024/04/20 09:13:20;;;;;;;4.22;1.23;;;9.60;99.90;;;;;;4468962;26;20012;-60
2024/04/20 09:15:21;;;;;;;4.80;1.15;;;9.70;99.90;;;;;;4448715;26;20567;-60
2024/04/20 09:17:22;;;;;;;5.55;1.30;;;9.70;99.90;;;;;;4448112;26;20085;-60
2024/04/20 09:19:24;;;;;;;4.97;1.20;;;9.60;99.90;;;;;;4451027;26;20012;-60
2024/04/20 09:21:25;;;;;;;6.93;1.67;;;9.60;99.90;;;;;;4442471;26;20015;-60
2024/04/20 09:23:25;;;;;;;5.85;1.40;;;9.60;99.90;;;;;;4453589;26;20035;-60
2024/04/20 09:25:26;;;;;;;7.78;1.85;;;9.50;99.90;;;;;;4456120;26;20005;-60
2024/04/20 09:27:27;;;;;;;4.60;1.05;;;9.60;99.90;;;;;;4451760;26;20078;-60
2024/04/20 09:29:28;;;;;;;4.00;0.98;;;9.60;99.90;;;;;;4455493;26;20452;-60
2024/04/20 09:31:29;;;;;;;4.85;1.15;;;9.70;99.90;;;;;;4438723;26;20538;-60
2024/04/20 09:33:29;;;;;;;3.03;1.25;;;9.80;99.90;;;;;;4455024;26;20091;-60
2024/04/20 09:35:30;;;;;;;4.38;1.30;;;10.00;99.90;;;;;;4454932;26;20012;-60
2024/04/20 09:37:31;;;;;;;3.38;1.00;;;10.10;99.90;;;;;;4447345;26;20399;-60
2024/04/20 09:39:31;;;;;;;5.45;1.38;;;10.30;99.90;;;;;;4452472;26;20000;-60
2024/04/20 09:41:32;;;;;;;6.43;1.25;;;10.50;99.90;;;;;;4453861;26;20467;-60
2024/04/20 09:43:41;;;;;;;3.90;1.20;;;10.60;99.90;;;;;;4449412;26;20030;-60
2024/04/20 09:45:42;;;;;;;6.22;1.58;;;10.60;99.90;;;;;;4447479;26;20000;-60
2024/04/20 09:47:43;;;;;;;4.85;1.15;;;10.70;99.90;;;;;;4461026;26;20386;-60
2024/04/20 09:49:47;;;;;;;8.85;1.60;;;10.70;99.90;;;;;;4454158;26;20016;-60
2024/04/20 09:51:47;;;;;;;8.00;2.22;;;10.70;99.90;;;;;;4449899;26;20008;-60
2024/04/20 09:53:59;;;;;;;9.18;1.65;;;10.70;99.90;;;;;;4453040;26;20081;-59
2024/04/20 09:56:02;;;;;;;8.50;1.95;;;10.60;99.90;;;;;;4447294;26;20444;-59
2024/04/20 09:58:03;;;;;;;;;;;10.60;99.90;;;;;;4423096;26;20110;-59
2024/04/20 10:00:06;;;;;;;7.10;1.55;;;10.50;99.90;;;;;;4458461;26;19933;-60
2024/04/20 10:02:09;;;;;;;7.90;1.83;;;10.50;99.90;;;;;;4453237;26;20000;-60
2024/04/20 10:04:10;;;;;;;;;;;10.50;99.90;;;;;;4445537;26;20023;-60
2024/04/20 10:06:13;;;;;;;5.88;1.55;;;10.50;99.90;;;;;;4453355;26;19937;-60
2024/04/20 10:08:14;;;;;;;5.35;1.67;;;10.40;99.90;;;;;;4423767;26;20005;-60
2024/04/20 10:10:16;;;;;;;4.75;1.50;;;10.40;99.90;;;;;;4425817;26;20008;-60
2024/04/20 10:12:17;;;;;;;5.72;1.90;;;10.40;99.90;;;;;;4458722;26;20003;-60
2024/04/20 10:14:18;;;;;;;11.15;1.77;;;10.40;99.90;;;;;;4463315;26;20005;-59
2024/04/20 10:16:19;;;;;;;5.82;1.40;;;10.50;99.90;;;;;;4449142;26;20037;-59
2024/04/20 10:18:20;;;;;;;1.98;0.68;;;10.40;99.90;;;;;;4456441;26;20061;-60
2024/04/20 10:20:35;;;;;;;3.97;1.00;;;10.30;99.90;;;;;;4419908;26;20383;-59
2024/04/20 10:22:40;;;;;;;5.07;1.25;;;10.10;99.90;;;;;;4450273;26;20023;-60
2024/04/20 10:24:53;;;;;;;6.82;1.08;;;9.90;99.90;;;;;;4417535;26;20418;-61
2024/04/20 10:26:56;;;;;;;4.07;1.17;;;9.70;99.90;;;;;;4454830;26;20027;-60
2024/04/20 10:29:07;;;;;;;5.00;0.90;;;9.50;99.90;;;;;;4423560;26;20471;-60
2024/04/20 10:31:08;;;;;;;5.63;0.93;;;9.30;99.90;;;;;;4426984;26;20015;-60
2024/04/20 10:33:09;;;;;;;2.92;0.82;;;9.20;99.90;;;;;;4428715;26;20009;-60
2024/04/20 10:35:10;;;;;;;2.97;0.98;;;9.20;99.90;;;;;;4445699;26;20349;-60
2024/04/20 10:37:21;;;;;;;5.40;1.02;;;9.10;99.90;;;;;;4458290;26;20336;-60
2024/04/20 10:39:26;;;;;;;11.35;1.63;;;9.00;99.90;;;;;;4455811;26;20011;-60